createdAt,value
2023-03-15T00:02:01.402Z,3.00
2023-03-15T00:04:28.822Z,4.00
2023-03-15T00:06:56.002Z,3.75
2023-03-15T00:09:22.811Z,4.75
2023-03-15T00:11:50.110Z,3.75
2023-03-15T00:14:17.123Z,4.25
2023-03-15T00:16:44.557Z,4.00
2023-03-15T00:19:13.615Z,4.00
2023-03-15T00:21:41.554Z,5.50
2023-03-15T00:24:08.803Z,3.75
2023-03-15T00:26:35.540Z,5.25
2023-03-15T00:29:02.422Z,4.25
2023-03-15T00:31:29.364Z,6.00
2023-03-15T00:33:56.184Z,3.75
2023-03-15T00:36:25.627Z,5.25
2023-03-15T00:38:56.769Z,6.00
2023-03-15T00:41:24.424Z,4.50
2023-03-15T00:43:52.414Z,5.25
2023-03-15T00:46:20.032Z,4.00
2023-03-15T00:48:51.288Z,5.25
2023-03-15T00:51:21.304Z,7.00
2023-03-15T00:53:52.767Z,5.75
2023-03-15T00:56:22.623Z,5.75
2023-03-15T00:58:50.215Z,9.75
2023-03-15T01:01:23.123Z,4.50
2023-03-15T01:03:50.580Z,7.75
2023-03-15T01:06:20.604Z,6.75
2023-03-15T01:08:50.979Z,4.50
2023-03-15T01:11:21.258Z,8.00
2023-03-15T01:13:48.223Z,6.00
2023-03-15T01:16:15.987Z,4.25
2023-03-15T01:18:44.319Z,4.75
2023-03-15T01:21:14.296Z,5.00
2023-03-15T01:23:42.158Z,8.25
2023-03-15T01:26:14.529Z,4.25
2023-03-15T01:28:41.686Z,5.25
2023-03-15T01:31:16.875Z,6.00
2023-03-15T01:33:44.868Z,7.25
2023-03-15T01:36:12.555Z,4.75
2023-03-15T01:38:40.145Z,6.00
2023-03-15T01:41:07.865Z,6.00
2023-03-15T01:43:35.957Z,3.25
2023-03-15T01:46:21.509Z,5.00
2023-03-15T01:48:56.918Z,4.00
2023-03-15T01:51:36.940Z,4.00
2023-03-15T01:54:10.248Z,3.25
2023-03-15T01:56:45.872Z,2.00
2023-03-15T01:59:24.345Z,2.00
2023-03-15T02:01:53.620Z,1.00
2023-03-15T02:04:28.723Z,3.00
2023-03-15T02:07:01.940Z,3.00
2023-03-15T02:09:40.896Z,0.00
2023-03-15T02:12:10.395Z,3.75
2023-03-15T02:14:40.639Z,3.00
2023-03-15T02:17:08.825Z,2.50
2023-03-15T02:19:51.755Z,2.50
2023-03-15T02:22:40.042Z,2.75
2023-03-15T02:25:17.026Z,2.00
2023-03-15T02:27:45.886Z,4.00
2023-03-15T02:30:15.199Z,3.00
2023-03-15T02:32:42.445Z,3.50
2023-03-15T02:35:09.775Z,2.00
2023-03-15T02:37:36.559Z,2.00
2023-03-15T02:40:19.330Z,2.50
2023-03-15T02:42:53.843Z,0.75
2023-03-15T02:45:21.697Z,1.50
2023-03-15T02:47:51.572Z,2.00
2023-03-15T02:50:19.160Z,2.00
2023-03-15T02:52:46.216Z,1.50
2023-03-15T02:55:13.198Z,3.00
2023-03-15T02:57:40.215Z,2.00
2023-03-15T03:00:11.114Z,2.00
2023-03-15T03:02:37.979Z,1.50
2023-03-15T03:05:05.948Z,2.00
2023-03-15T03:07:32.934Z,1.75
2023-03-15T03:10:05.204Z,1.50
2023-03-15T03:12:41.718Z,2.00
2023-03-15T03:15:11.632Z,2.25
2023-03-15T03:17:39.130Z,2.25
2023-03-15T03:20:09.079Z,2.50
2023-03-15T03:22:41.781Z,2.25
2023-03-15T03:25:10.248Z,2.75
2023-03-15T03:27:37.380Z,2.25
2023-03-15T03:30:11.722Z,0.75
2023-03-15T03:32:41.263Z,2.25
2023-03-15T03:35:09.358Z,3.75
2023-03-15T03:37:36.510Z,2.00
2023-03-15T03:40:11.166Z,3.25
2023-03-15T03:42:38.720Z,3.00
2023-03-15T03:45:08.175Z,1.50
2023-03-15T03:47:42.197Z,1.75
2023-03-15T03:50:11.485Z,2.00
2023-03-15T03:52:38.882Z,2.75
2023-03-15T03:55:10.132Z,2.00
2023-03-15T03:57:37.552Z,3.25
2023-03-15T04:00:20.639Z,3.00
2023-03-15T04:02:51.587Z,3.25
2023-03-15T04:05:18.503Z,2.00
2023-03-15T04:07:45.545Z,6.00
2023-03-15T04:10:15.694Z,4.00
2023-03-15T04:12:46.286Z,3.00
2023-03-15T04:15:14.824Z,3.50
2023-03-15T04:17:42.314Z,3.00
2023-03-15T04:20:11.938Z,1.50
2023-03-15T04:22:42.827Z,2.00
2023-03-15T04:25:42.610Z,2.25
2023-03-15T04:28:16.180Z,3.00
2023-03-15T04:30:56.372Z,2.50
2023-03-15T04:33:40.773Z,3.00
2023-03-15T04:36:26.968Z,3.00
2023-03-15T04:39:13.106Z,1.00
2023-03-15T04:41:58.580Z,3.25
2023-03-15T04:44:35.726Z,2.75
2023-03-15T04:47:21.743Z,9.33
2023-03-15T04:50:09.669Z,5.00
2023-03-15T04:52:53.681Z,5.00
2023-03-15T04:55:35.533Z,3.00
2023-03-15T04:58:21.961Z,1.00
2023-03-15T05:01:02.104Z,4.33
2023-03-15T05:03:58.800Z,5.00
2023-03-15T05:06:48.170Z,4.00
2023-03-15T05:09:40.245Z,3.33
2023-03-15T05:12:33.666Z,3.67
2023-03-15T05:15:15.485Z,4.00
2023-03-15T05:18:08.748Z,7.00
2023-03-15T05:21:07.173Z,4.00
2023-03-15T05:23:47.454Z,5.33
2023-03-15T05:26:48.182Z,5.00
2023-03-15T05:29:39.135Z,8.33
2023-03-15T05:32:24.647Z,6.00
2023-03-15T05:35:13.295Z,6.00
2023-03-15T05:37:49.356Z,5.00
2023-03-15T05:40:44.926Z,6.00
2023-03-15T05:43:36.034Z,5.00
2023-03-15T05:46:16.028Z,7.67
2023-03-15T05:48:58.358Z,6.00
2023-03-15T05:51:34.572Z,5.75
2023-03-15T05:54:21.789Z,6.00
2023-03-15T05:56:48.668Z,6.25
2023-03-15T05:59:16.835Z,6.00
2023-03-15T06:02:07.468Z,10.00
2023-03-15T06:04:42.581Z,9.50
2023-03-15T06:07:13.093Z,13.25
2023-03-15T06:09:40.209Z,23.25
2023-03-15T06:12:07.549Z,4.00
2023-03-15T06:14:37.382Z,5.50
2023-03-15T06:17:10.942Z,4.00
2023-03-15T06:19:41.712Z,4.00
2023-03-15T06:22:10.650Z,7.00
2023-03-15T06:24:52.642Z,7.00
2023-03-15T06:27:19.900Z,3.75
2023-03-15T06:29:48.730Z,6.00
2023-03-15T06:32:17.231Z,3.50
2023-03-15T06:34:44.242Z,6.00
2023-03-15T06:37:14.684Z,3.00
2023-03-15T06:39:43.305Z,4.00
2023-03-15T06:42:10.884Z,4.00
2023-03-15T06:44:39.524Z,2.33
2023-03-15T06:47:11.040Z,3.33
2023-03-15T06:49:38.140Z,3.75
2023-03-15T06:52:10.916Z,3.33
2023-03-15T06:54:38.875Z,2.00
2023-03-15T06:57:05.748Z,2.00
2023-03-15T06:59:32.932Z,1.00
2023-03-15T07:02:00.105Z,4.00
2023-03-15T07:04:28.344Z,5.00
2023-03-15T07:06:55.763Z,2.67
2023-03-15T07:09:22.770Z,2.00
2023-03-15T07:11:49.548Z,2.00
2023-03-15T07:14:16.363Z,3.00
2023-03-15T07:16:43.548Z,2.50
2023-03-15T07:19:10.574Z,3.00
2023-03-15T07:21:38.738Z,3.50
2023-03-15T07:24:07.965Z,7.50
2023-03-15T07:26:35.252Z,3.00
2023-03-15T07:29:02.231Z,2.33
2023-03-15T07:31:29.058Z,1.67
2023-03-15T07:33:55.944Z,3.00
2023-03-15T07:36:22.828Z,1.00
2023-03-15T07:38:51.057Z,1.50
2023-03-15T07:41:17.859Z,3.00
2023-03-15T07:43:58.350Z,1.50
2023-03-15T07:46:25.779Z,3.00
2023-03-15T07:48:52.577Z,1.00
2023-03-15T07:51:19.455Z,5.50
2023-03-15T07:53:46.234Z,2.00
2023-03-15T07:56:15.748Z,3.00
2023-03-15T07:58:43.142Z,2.00
2023-03-15T08:01:09.987Z,4.00
2023-03-15T08:03:36.768Z,1.75
2023-03-15T08:06:03.902Z,0.67
2023-03-15T08:08:30.736Z,1.00
2023-03-15T08:10:57.542Z,2.00
2023-03-15T08:13:26.094Z,3.50
2023-03-15T08:15:53.232Z,2.25
2023-03-15T08:18:20.078Z,2.00
2023-03-15T08:20:47.008Z,1.00
2023-03-15T08:23:14.084Z,1.00
2023-03-15T08:25:41.195Z,3.25
2023-03-15T08:28:08.082Z,1.50
2023-03-15T08:30:36.441Z,1.00
2023-03-15T08:33:04.877Z,1.25
2023-03-15T08:35:34.004Z,1.00
2023-03-15T08:38:01.507Z,1.00
2023-03-15T08:40:30.332Z,2.00
2023-03-15T08:42:58.065Z,0.50
2023-03-15T08:45:26.159Z,0.50
2023-03-15T08:47:56.542Z,1.50
2023-03-15T08:50:25.625Z,3.00
2023-03-15T08:52:52.946Z,1.00
2023-03-15T08:55:21.049Z,1.00
2023-03-15T08:57:48.003Z,1.00
2023-03-15T09:00:16.928Z,0.50
2023-03-15T09:02:43.976Z,1.00
2023-03-15T09:05:12.286Z,0.00
2023-03-15T09:07:39.680Z,2.50
2023-03-15T09:10:07.192Z,1.00
2023-03-15T09:12:34.025Z,0.25
2023-03-15T09:15:00.926Z,1.50
2023-03-15T09:17:27.884Z,1.00
2023-03-15T09:19:54.682Z,1.00
2023-03-15T09:22:38.688Z,1.00
2023-03-15T09:25:07.302Z,0.00
2023-03-15T09:27:34.369Z,0.00
2023-03-15T09:30:01.201Z,1.00
2023-03-15T09:32:28.640Z,1.00
2023-03-15T09:34:55.484Z,1.50
2023-03-15T09:37:23.834Z,0.00
2023-03-15T09:39:50.534Z,0.50
2023-03-15T09:42:29.137Z,0.67
2023-03-15T09:45:13.536Z,1.00
2023-03-15T09:47:53.039Z,1.00
2023-03-15T09:50:29.284Z,1.00
2023-03-15T09:53:06.329Z,1.50
2023-03-15T09:55:33.926Z,1.00
2023-03-15T09:58:03.711Z,2.50
2023-03-15T10:00:41.478Z,0.00
2023-03-15T10:03:19.689Z,0.00
2023-03-15T10:05:54.494Z,0.25
2023-03-15T10:08:26.164Z,0.00
2023-03-15T10:11:02.538Z,0.00
2023-03-15T10:13:51.725Z,4.00
2023-03-15T10:16:39.954Z,0.00
2023-03-15T10:19:17.948Z,0.00
2023-03-15T10:21:56.489Z,0.00
2023-03-15T10:24:36.374Z,0.00
2023-03-15T10:27:19.433Z,0.00
2023-03-15T10:29:51.536Z,0.00
2023-03-15T10:32:25.748Z,0.00
2023-03-15T10:34:58.296Z,0.00
2023-03-15T10:37:25.996Z,0.50
2023-03-15T10:39:59.013Z,0.25
2023-03-15T10:42:31.658Z,0.00
2023-03-15T10:45:10.848Z,1.00
2023-03-15T10:48:00.680Z,1.00
2023-03-15T10:50:32.682Z,1.00
2023-03-15T10:53:07.958Z,0.00
2023-03-15T10:55:43.683Z,1.75
2023-03-15T10:58:25.748Z,1.00
2023-03-15T11:00:59.904Z,1.00
2023-03-15T11:03:27.242Z,1.00
2023-03-15T11:05:57.384Z,3.50
2023-03-15T11:08:36.539Z,2.75
2023-03-15T11:11:06.850Z,2.25
2023-03-15T11:13:36.432Z,0.00
2023-03-15T11:16:08.542Z,4.00
2023-03-15T11:18:44.362Z,6.50
2023-03-15T11:21:16.103Z,6.50
2023-03-15T11:23:47.909Z,1.25
2023-03-15T11:26:31.578Z,2.00
2023-03-15T11:29:07.808Z,3.25
2023-03-15T11:31:36.141Z,4.00
2023-03-15T11:34:08.893Z,1.50
2023-03-15T11:36:43.496Z,3.00
2023-03-15T11:39:19.223Z,3.00
2023-03-15T11:41:55.045Z,4.25
2023-03-15T11:44:33.567Z,3.75
2023-03-15T11:47:12.778Z,3.50
2023-03-15T11:49:49.122Z,3.00
2023-03-15T11:52:17.173Z,3.50
2023-03-15T11:54:45.951Z,3.00
2023-03-15T11:57:42.379Z,4.00
2023-03-15T12:00:50.622Z,1.00
2023-03-15T12:03:40.942Z,6.00
2023-03-15T12:06:46.321Z,5.00
2023-03-15T12:09:41.150Z,4.25
2023-03-15T12:12:38.220Z,4.25
2023-03-15T12:15:43.550Z,3.50
2023-03-15T12:18:18.161Z,2.75
2023-03-15T12:21:08.067Z,3.00
2023-03-15T12:23:46.094Z,3.00
2023-03-15T12:26:27.202Z,4.00
2023-03-15T12:29:08.899Z,2.50
2023-03-15T12:31:56.024Z,3.50
2023-03-15T12:34:36.232Z,2.25
2023-03-15T12:37:08.676Z,2.75
2023-03-15T12:39:44.495Z,6.00
2023-03-15T12:42:34.786Z,4.00
2023-03-15T12:45:46.765Z,3.75
2023-03-15T12:48:26.663Z,3.50
2023-03-15T12:51:43.913Z,15.75
2023-03-15T12:54:16.047Z,8.75
2023-03-15T12:56:50.020Z,3.00
2023-03-15T12:59:39.890Z,1.50
2023-03-15T13:02:41.740Z,9.75
2023-03-15T13:05:20.127Z,1.00
2023-03-15T13:07:55.721Z,1.00
2023-03-15T13:11:07.712Z,3.50
2023-03-15T13:13:59.584Z,2.50
2023-03-15T13:16:37.197Z,1.50
2023-03-15T13:19:18.770Z,0.75
2023-03-15T13:22:10.028Z,0.00
2023-03-15T13:24:51.362Z,2.00
2023-03-15T13:27:44.333Z,1.00
2023-03-15T13:30:33.861Z,1.00
2023-03-15T13:33:19.342Z,1.00
2023-03-15T13:35:55.335Z,1.00
2023-03-15T13:38:29.505Z,1.00
2023-03-15T13:41:01.661Z,2.50
2023-03-15T13:43:32.604Z,3.00
2023-03-15T13:46:00.788Z,3.00
2023-03-15T13:48:30.177Z,5.25
2023-03-15T13:51:05.815Z,5.00
2023-03-15T13:53:48.625Z,3.25
2023-03-15T13:56:21.231Z,4.50
2023-03-15T13:58:50.310Z,6.50
2023-03-15T14:01:18.568Z,2.50
2023-03-15T14:03:54.539Z,2.50
2023-03-15T14:06:26.631Z,1.00
2023-03-15T14:09:01.171Z,2.00
2023-03-15T14:11:36.405Z,1.50
2023-03-15T14:14:22.451Z,1.00
2023-03-15T14:17:04.278Z,3.00
2023-03-15T14:19:35.622Z,3.75
2023-03-15T14:22:12.681Z,3.00
2023-03-15T14:24:43.266Z,1.00
2023-03-15T14:27:18.430Z,3.00
2023-03-15T14:29:49.069Z,2.00
2023-03-15T14:32:27.505Z,3.25
2023-03-15T14:35:01.708Z,2.00
2023-03-15T14:37:36.602Z,4.25
2023-03-15T14:40:18.735Z,4.50
2023-03-15T14:42:49.123Z,2.50
2023-03-15T14:45:17.028Z,3.00
2023-03-15T14:47:57.088Z,4.00
2023-03-15T14:50:28.050Z,3.75
2023-03-15T14:52:58.177Z,3.00
2023-03-15T14:55:31.244Z,3.00
2023-03-15T14:57:59.591Z,3.00
2023-03-15T15:00:27.242Z,3.00
2023-03-15T15:02:57.139Z,8.00
2023-03-15T15:05:28.616Z,1.00
2023-03-15T15:08:04.110Z,3.00
2023-03-15T15:10:32.948Z,7.00
2023-03-15T15:13:06.457Z,6.75
2023-03-15T15:15:47.345Z,6.75
2023-03-15T15:18:22.518Z,3.50
2023-03-15T15:20:49.500Z,6.00
2023-03-15T15:23:20.932Z,7.00
2023-03-15T15:25:51.578Z,3.25
2023-03-15T15:28:33.120Z,3.75
2023-03-15T15:31:01.330Z,4.00
2023-03-15T15:33:28.255Z,3.50
2023-03-15T15:35:57.861Z,4.00
2023-03-15T15:38:32.292Z,5.50
2023-03-15T15:40:59.318Z,3.00
2023-03-15T15:43:27.410Z,2.25
2023-03-15T15:45:54.268Z,3.75
2023-03-15T15:48:21.527Z,4.25
2023-03-15T15:50:48.449Z,2.50
2023-03-15T15:53:18.071Z,4.25
2023-03-15T15:55:45.624Z,1.00
2023-03-15T15:58:14.055Z,3.50
2023-03-15T16:00:42.248Z,3.00
2023-03-15T16:03:13.548Z,0.50
2023-03-15T16:05:40.710Z,3.00
2023-03-15T16:08:22.078Z,3.50
2023-03-15T16:10:49.800Z,4.00
2023-03-15T16:13:17.007Z,5.00
2023-03-15T16:15:45.221Z,5.00
2023-03-15T16:18:13.080Z,3.25
2023-03-15T16:20:41.907Z,3.00
2023-03-15T16:23:17.867Z,3.25
2023-03-15T16:25:49.412Z,8.00
2023-03-15T16:28:16.490Z,3.00
2023-03-15T16:30:46.860Z,1.00
2023-03-15T16:33:16.437Z,1.00
2023-03-15T16:35:45.581Z,2.00
2023-03-15T16:38:17.171Z,2.00
2023-03-15T16:40:46.270Z,3.00
2023-03-15T16:43:13.808Z,3.00
2023-03-15T16:45:40.969Z,3.00
2023-03-15T16:48:09.384Z,3.00
2023-03-15T16:50:36.694Z,6.00
2023-03-15T16:53:08.249Z,3.00
2023-03-15T16:55:36.441Z,4.75
2023-03-15T16:58:16.378Z,5.00
2023-03-15T17:00:43.529Z,4.00
2023-03-15T17:03:11.698Z,5.00
2023-03-15T17:05:47.272Z,8.00
2023-03-15T17:08:18.654Z,3.75
2023-03-15T17:10:46.208Z,9.00
2023-03-15T17:13:16.829Z,6.00
2023-03-15T17:15:44.864Z,7.00
2023-03-15T17:18:18.315Z,8.25
2023-03-15T17:20:48.747Z,8.75
2023-03-15T17:23:16.900Z,6.00
2023-03-15T17:25:43.918Z,13.75
2023-03-15T17:28:11.523Z,5.50
2023-03-15T17:30:38.802Z,6.50
2023-03-15T17:33:06.015Z,6.25
2023-03-15T17:35:39.612Z,7.25
2023-03-15T17:38:18.050Z,5.00
2023-03-15T17:40:45.865Z,5.00
2023-03-15T17:43:15.596Z,4.75
2023-03-15T17:45:43.058Z,5.75
2023-03-15T17:48:09.914Z,6.00
2023-03-15T17:50:40.023Z,3.75
2023-03-15T17:53:15.493Z,5.25
2023-03-15T17:55:43.314Z,7.00
2023-03-15T17:58:15.612Z,13.00
2023-03-15T18:00:42.386Z,12.50
2023-03-15T18:03:11.958Z,7.00
2023-03-15T18:05:40.593Z,15.50
2023-03-15T18:08:11.559Z,12.75
2023-03-15T18:10:40.776Z,12.00
2023-03-15T18:13:11.768Z,16.00
2023-03-15T18:15:38.694Z,12.75
2023-03-15T18:18:06.674Z,11.25
2023-03-15T18:20:33.601Z,4.75
2023-03-15T18:23:02.227Z,6.00
2023-03-15T18:25:33.305Z,7.00
2023-03-15T18:28:00.742Z,12.25
2023-03-15T18:30:31.020Z,9.25
2023-03-15T18:32:58.526Z,14.50
2023-03-15T18:35:29.683Z,17.75
2023-03-15T18:37:56.861Z,12.25
2023-03-15T18:40:31.237Z,23.75
2023-03-15T18:42:58.834Z,10.50
2023-03-15T18:45:28.971Z,7.00
2023-03-15T18:47:55.745Z,13.50
2023-03-15T18:50:23.296Z,13.50
2023-03-15T18:52:50.205Z,25.25
2023-03-15T18:55:19.595Z,24.75
2023-03-15T18:57:49.102Z,14.50
2023-03-15T19:00:19.678Z,20.50
2023-03-15T19:02:46.713Z,19.50
2023-03-15T19:05:16.100Z,19.25
2023-03-15T19:07:42.897Z,23.00
2023-03-15T19:10:13.444Z,25.00
2023-03-15T19:12:40.966Z,14.00
2023-03-15T19:15:11.095Z,25.50
2023-03-15T19:17:39.008Z,11.50
2023-03-15T19:20:08.509Z,7.00
2023-03-15T19:22:35.462Z,12.00
2023-03-15T19:25:02.534Z,12.25
2023-03-15T19:27:29.349Z,11.00
2023-03-15T19:29:56.122Z,8.00
2023-03-15T19:32:24.576Z,8.00
2023-03-15T19:34:51.544Z,8.75
2023-03-15T19:37:18.687Z,6.75
2023-03-15T19:39:45.414Z,11.25
2023-03-15T19:42:12.363Z,11.25
2023-03-15T19:44:39.269Z,9.00
2023-03-15T19:47:06.242Z,11.25
2023-03-15T19:49:34.419Z,14.25
2023-03-15T19:52:01.230Z,13.25
2023-03-15T19:54:28.379Z,12.00
2023-03-15T19:56:55.183Z,15.50
2023-03-15T19:59:22.061Z,19.00
2023-03-15T20:01:48.969Z,16.00
2023-03-15T20:04:19.465Z,24.00
2023-03-15T20:06:47.670Z,34.75
2023-03-15T20:09:14.755Z,30.75
2023-03-15T20:11:41.610Z,23.50
2023-03-15T20:14:08.760Z,19.75
2023-03-15T20:16:35.647Z,18.50
2023-03-15T20:19:02.681Z,18.75
2023-03-15T20:21:29.905Z,17.00
2023-03-15T20:23:58.053Z,10.75
2023-03-15T20:26:24.916Z,16.25
2023-03-15T20:28:52.102Z,17.00
2023-03-15T20:31:19.249Z,7.00
2023-03-15T20:33:50.048Z,14.75
2023-03-15T20:36:18.236Z,16.00
2023-03-15T20:38:46.028Z,21.00
2023-03-15T20:41:14.364Z,19.75
2023-03-15T20:43:42.090Z,20.25
2023-03-15T20:46:09.682Z,17.00
2023-03-15T20:48:37.276Z,18.25
2023-03-15T20:51:05.813Z,19.00
2023-03-15T20:53:35.305Z,16.50
2023-03-15T20:56:04.093Z,18.50
2023-03-15T20:58:32.786Z,19.25
2023-03-15T21:01:05.052Z,21.75
2023-03-15T21:03:33.075Z,22.00
2023-03-15T21:06:00.704Z,19.75
2023-03-15T21:08:28.022Z,23.00
2023-03-15T21:10:55.141Z,19.25
2023-03-15T21:13:22.533Z,5.75
2023-03-15T21:15:53.089Z,21.25
2023-03-15T21:18:23.190Z,25.00
2023-03-15T21:20:57.138Z,29.25
2023-03-15T21:23:25.013Z,19.50
2023-03-15T21:25:55.601Z,24.75
2023-03-15T21:28:23.670Z,19.75
2023-03-15T21:30:52.966Z,26.00
2023-03-15T21:33:20.501Z,23.75
2023-03-15T21:35:49.138Z,20.25
2023-03-15T21:38:17.151Z,23.00
2023-03-15T21:40:44.286Z,26.50
2023-03-15T21:43:11.380Z,24.50
2023-03-15T21:45:38.370Z,28.25
2023-03-15T21:48:07.556Z,29.33
2023-03-15T21:50:35.506Z,25.50
2023-03-15T21:53:02.829Z,27.00
2023-03-15T21:55:31.069Z,26.33
2023-03-15T21:57:57.929Z,0.00
2023-03-15T22:00:25.212Z,28.67
2023-03-15T22:02:54.484Z,27.25
2023-03-15T22:05:24.116Z,32.67
2023-03-15T22:07:50.982Z,37.00
2023-03-15T22:10:17.962Z,35.33
2023-03-15T22:12:44.736Z,31.75
2023-03-15T22:15:12.556Z,29.25
2023-03-15T22:17:39.856Z,28.75
2023-03-15T22:20:09.603Z,27.00
2023-03-15T22:22:37.977Z,27.00
2023-03-15T22:25:05.609Z,30.00
2023-03-15T22:27:32.653Z,24.25
2023-03-15T22:29:59.421Z,21.25
2023-03-15T22:32:26.588Z,23.33
2023-03-15T22:34:53.392Z,24.67
2023-03-15T22:37:20.409Z,31.33
2023-03-15T22:39:48.586Z,33.33
2023-03-15T22:42:15.579Z,27.67
2023-03-15T22:44:42.442Z,29.67
2023-03-15T22:47:10.052Z,32.33
2023-03-15T22:49:37.282Z,27.00
2023-03-15T22:52:05.229Z,26.33
2023-03-15T22:54:32.035Z,20.33
2023-03-15T22:57:00.154Z,22.00
2023-03-15T22:59:26.976Z,25.67
2023-03-15T23:01:53.809Z,23.33
2023-03-15T23:04:20.678Z,25.33
2023-03-15T23:06:47.590Z,23.67
2023-03-15T23:09:14.401Z,31.67
2023-03-15T23:11:41.172Z,27.33
2023-03-15T23:14:09.341Z,30.67
2023-03-15T23:16:36.188Z,30.00
2023-03-15T23:19:03.202Z,25.67
2023-03-15T23:21:30.238Z,30.00
2023-03-15T23:23:57.106Z,24.33
2023-03-15T23:26:23.912Z,29.00
2023-03-15T23:28:51.452Z,30.00
2023-03-15T23:31:20.258Z,24.33
2023-03-15T23:33:47.505Z,27.00
2023-03-15T23:36:14.866Z,25.33
2023-03-15T23:38:41.718Z,29.67
2023-03-15T23:41:08.929Z,26.00
2023-03-15T23:43:36.190Z,28.00
2023-03-15T23:46:05.044Z,27.67
2023-03-15T23:48:33.937Z,29.00
2023-03-15T23:51:02.523Z,33.00
2023-03-15T23:53:30.004Z,37.33
2023-03-15T23:55:57.048Z,36.00
2023-03-15T23:58:24.338Z,23.00
